Time;durP1;ratioP1;P1;durP2;ratioP2;P2;SDS_P1;SDS_P2;PMS_P1;PMS_P2;Temp;Humidity;BMP_temperature;BMP_pressure;BME280_temperature;BME280_humidity;BME280_pressure;Samples;Min_cycle;Max_cycle;Signal;HPM_P1;HPM_P2
2020/12/22 00:02:49;;;;;;;71.57;31.70;;;;;;;1.59;86.62;101081.55;5148680;56;1138448;-86
2020/12/22 00:07:55;;;;;;;66.60;32.90;;;;;;;1.60;86.55;101062.40;5111677;56;1162935;-87
2020/12/22 00:13:00;;;;;;;69.10;32.78;;;;;;;1.60;86.50;101054.58;5111224;56;1138275;-87
2020/12/22 00:18:06;;;;;;;76.20;33.50;;;;;;;1.58;86.59;101054.63;5198856;56;1136549;-87
2020/12/22 00:23:12;;;;;;;64.58;28.90;;;;;;;1.53;86.75;101047.39;5118438;55;1138285;-87
2020/12/22 00:28:18;;;;;;;73.17;33.00;;;;;;;1.58;86.56;101038.13;5156129;55;1138315;-86
2020/12/22 00:33:23;;;;;;;90.80;38.07;;;;;;;1.60;86.53;101023.30;5120298;56;1138243;-87
2020/12/22 00:38:29;;;;;;;84.07;38.30;;;;;;;1.59;86.62;101025.05;5116973;55;1138426;-86
2020/12/22 00:43:34;;;;;;;67.33;29.70;;;;;;;1.54;86.65;101010.00;5121349;55;1138247;-87
2020/12/22 00:48:40;;;;;;;61.67;27.30;;;;;;;1.55;86.67;101009.09;5100440;55;1138227;-87
2020/12/22 00:53:46;;;;;;;61.80;27.17;;;;;;;1.60;86.62;101016.33;5107605;55;1138420;-87
2020/12/22 00:58:52;;;;;;;68.50;32.17;;;;;;;1.64;86.62;100995.78;5136972;56;1257361;-87
2020/12/22 01:04:00;;;;;;;81.37;34.45;;;;;;;1.65;86.71;100986.20;5111884;55;1138228;-87
2020/12/22 01:09:09;;;;;;;67.87;27.43;;;;;;;1.62;86.72;100977.17;5141295;56;1138221;-88
2020/12/22 01:14:15;;;;;;;61.80;25.33;;;;;;;1.66;86.68;100955.32;5136856;56;1138815;-87
2020/12/22 01:19:20;;;;;;;65.80;27.90;;;;;;;1.68;86.64;100949.61;5107396;56;1139054;-87
2020/12/22 01:24:26;;;;;;;58.67;26.17;;;;;;;1.68;86.72;100947.81;5142690;56;1138474;-87
2020/12/22 01:29:31;;;;;;;54.40;24.33;;;;;;;1.69;86.70;100946.06;5007530;57;1138401;-87
2020/12/22 01:34:37;;;;;;;57.97;24.83;;;;;;;1.72;86.70;100935.08;5014935;57;1138166;-87
2020/12/22 01:39:42;;;;;;;60.33;26.73;;;;;;;1.76;86.67;100927.56;5034412;57;1138481;-87
2020/12/22 01:44:48;;;;;;;61.80;25.20;;;;;;;1.78;86.75;100911.02;5033075;57;1138317;-87
2020/12/22 01:49:55;;;;;;;71.63;31.03;;;;;;;1.78;86.71;100907.95;5013946;57;1157293;-87
2020/12/22 01:55:01;;;;;;;58.92;26.15;;;;;;;1.80;86.61;100893.11;5071483;57;1138538;-87
2020/12/22 02:00:08;;;;;;;62.53;27.17;;;;;;;1.79;86.73;100882.73;5014717;57;1138307;-87
2020/12/22 02:05:14;;;;;;;73.07;26.37;;;;;;;1.75;86.98;100867.19;5111365;58;21517;-87
2020/12/22 02:10:19;;;;;;;62.00;25.47;;;;;;;1.75;86.87;100861.97;5011485;57;1134264;-87
2020/12/22 02:15:25;;;;;;;55.73;24.00;;;;;;;1.78;86.79;100849.28;5053627;57;1138426;-86
2020/12/22 02:20:31;;;;;;;51.07;23.23;;;;;;;1.83;86.68;100842.16;5053129;57;1138354;-86
2020/12/22 02:25:36;;;;;;;64.95;26.85;;;;;;;1.85;86.76;100815.54;5033430;57;1138368;-87
2020/12/22 02:30:42;;;;;;;57.40;25.60;;;;;;;1.83;86.87;100796.52;5014118;57;1138406;-86
2020/12/22 02:35:47;;;;;;;56.63;23.60;;;;;;;1.87;86.84;100793.32;5008004;57;1138359;-86
2020/12/22 02:40:53;;;;;;;53.13;23.43;;;;;;;1.90;86.77;100781.48;5011963;57;1138407;-86
2020/12/22 02:45:59;;;;;;;56.33;26.10;;;;;;;1.91;86.87;100772.75;5030203;57;1138384;-85
2020/12/22 02:51:04;;;;;;;47.70;21.68;;;;;;;1.92;86.85;100775.30;5032102;57;1138873;-86
2020/12/22 02:56:10;;;;;;;45.70;21.23;;;;;;;1.92;86.70;100764.02;5072326;57;1138157;-87
2020/12/22 03:01:16;;;;;;;41.80;19.50;;;;;;;1.97;86.74;100771.22;5111764;58;21137;-87
2020/12/22 03:06:23;;;;;;;41.10;20.53;;;;;;;2.01;86.70;100760.59;5033029;57;1134222;-87
2020/12/22 03:11:29;;;;;;;45.03;22.00;;;;;;;2.05;86.81;100758.27;5014337;57;1138474;-87
2020/12/22 03:16:34;;;;;;;44.10;19.17;;;;;;;2.07;86.58;100745.16;5071904;57;1138402;-87
2020/12/22 03:21:40;;;;;;;40.40;19.10;;;;;;;2.14;86.59;100740.09;5014750;57;1138794;-87
2020/12/22 03:26:45;;;;;;;41.37;19.47;;;;;;;2.19;86.60;100706.00;5041212;56;1138341;-87
2020/12/22 03:31:51;;;;;;;37.33;18.83;;;;;;;2.20;86.63;100695.50;5132434;56;1138403;-87
2020/12/22 03:36:56;;;;;;;39.40;16.10;;;;;;;2.24;86.58;100682.73;5099035;56;1177181;-87
2020/12/22 03:42:02;;;;;;;40.52;17.70;;;;;;;2.27;86.39;100670.87;5116594;56;1138500;-87
2020/12/22 03:47:07;;;;;;;33.40;15.13;;;;;;;2.29;86.41;100663.80;5117332;56;1141984;-86
2020/12/22 03:52:13;;;;;;;36.70;16.42;;;;;;;2.29;86.37;100646.02;5104717;55;1138297;-86
2020/12/22 03:57:19;;;;;;;33.47;16.43;;;;;;;2.32;86.22;100640.64;5154019;56;1138233;-86
2020/12/22 04:02:24;;;;;;;28.53;14.83;;;;;;;2.35;86.08;100614.42;5093570;55;1138384;-85
2020/12/22 04:07:30;;;;;;;35.40;15.27;;;;;;;2.39;86.06;100609.48;5164630;55;1138330;-85
2020/12/22 04:12:36;;;;;;;31.33;16.20;;;;;;;2.40;85.99;100614.64;5227069;56;21103;-86
2020/12/22 04:17:44;;;;;;;32.03;14.47;;;;;;;2.43;85.86;100608.44;5210952;56;21151;-85
2020/12/22 04:22:50;;;;;;;29.30;15.23;;;;;;;2.46;85.73;100606.52;5113813;55;1134089;-86
2020/12/22 04:27:55;;;;;;;31.73;15.83;;;;;;;2.47;85.88;100606.06;5178496;56;21124;-86
2020/12/22 04:33:01;;;;;;;28.03;14.80;;;;;;;2.46;85.78;100606.52;5103296;56;1134206;-85
2020/12/22 04:38:07;;;;;;;25.88;12.60;;;;;;;2.47;85.78;100596.47;4955645;57;1138460;-86
2020/12/22 04:43:13;;;;;;;32.60;15.83;;;;;;;2.48;85.74;100568.16;5048039;56;1138408;-86
2020/12/22 04:48:20;;;;;;;28.53;14.40;;;;;;;2.47;85.90;100576.05;5044937;58;1139080;-87
2020/12/22 04:53:28;;;;;;;11.28;7.10;;;;;;;2.50;85.88;100558.11;4931640;57;1138335;-87
2020/12/22 04:58:39;;;;;;;29.87;15.30;;;;;;;2.47;85.90;100549.49;4932251;56;1136459;-87
2020/12/22 05:03:46;;;;;;;28.77;13.97;;;;;;;2.46;85.99;100537.81;5044813;57;1138361;-87
2020/12/22 05:08:52;;;;;;;33.73;16.63;;;;;;;2.47;85.91;100525.15;5095233;58;21140;-87
2020/12/22 05:13:59;;;;;;;28.10;13.87;;;;;;;2.50;85.86;100520.25;5054640;58;21294;-87
2020/12/22 05:19:06;;;;;;;27.37;14.10;;;;;;;2.52;85.90;100518.42;4965532;58;1134381;-87
2020/12/22 05:24:11;;;;;;;23.42;12.85;;;;;;;2.51;85.95;100503.22;4982831;58;1138480;-86
2020/12/22 05:29:19;;;;;;;22.90;12.70;;;;;;;2.56;85.95;100490.82;5023197;58;1138496;-86
2020/12/22 05:34:27;;;;;;;26.87;13.70;;;;;;;2.61;86.02;100481.45;5034889;57;1140244;-85
2020/12/22 05:39:35;;;;;;;54.67;29.43;;;;;;;2.60;86.04;100473.27;5040587;58;21157;-86
2020/12/22 05:44:49;;;;;;;29.50;15.97;;;;;;;2.59;86.14;100459.81;4998858;58;1134214;-86
2020/12/22 05:49:58;;;;;;;26.07;14.00;;;;;;;2.62;86.11;100444.83;4993205;58;1140459;-86
2020/12/22 05:55:03;;;;;;;35.23;17.70;;;;;;;2.61;86.24;100443.59;4991378;57;1138372;-87
2020/12/22 06:00:15;;;;;;;20.83;10.13;;;;;;;2.60;86.41;100441.94;4995014;58;1138264;-87
2020/12/22 06:05:22;;;;;;;28.83;13.93;;;;;;;2.61;86.46;100430.09;4974699;58;1138221;-87
2020/12/22 06:10:28;;;;;;;42.70;19.93;;;;;;;2.64;86.49;100429.10;4968087;58;1138319;-87
2020/12/22 06:15:34;;;;;;;23.77;12.70;;;;;;;2.65;86.56;100421.20;5009112;58;1138287;-86
2020/12/22 06:20:40;;;;;;;25.87;13.23;;;;;;;2.65;86.74;100406.84;4907575;58;1138464;-86
2020/12/22 06:25:46;;;;;;;32.50;14.67;;;;;;;2.64;86.96;100397.31;5008268;58;21150;-86
2020/12/22 06:30:51;;;;;;;162.92;55.90;;;;;;;2.67;86.77;100383.27;4995585;56;1134339;-86
2020/12/22 06:36:10;;;;;;;32.53;15.10;;;;;;;2.69;87.05;100375.76;5045278;57;1140485;-88
2020/12/22 06:41:39;;;;;;;25.20;14.23;;;;;;;2.74;86.99;100368.56;5061237;57;1140385;-87
2020/12/22 06:46:46;;;;;;;43.43;20.63;;;;;;;2.73;87.08;100347.74;5052554;56;1138325;-88
2020/12/22 06:51:53;;;;;;;46.33;23.33;;;;;;;2.74;87.02;100335.92;5032850;57;1138555;-88
2020/12/22 06:56:58;;;;;;;29.77;15.80;;;;;;;2.75;87.35;100324.53;5078133;57;1138331;-87
2020/12/22 07:02:04;;;;;;;48.20;18.33;;;;;;;2.76;87.64;100307.94;5037941;56;1138293;-87
2020/12/22 07:07:10;;;;;;;143.07;54.88;;;;;;;2.78;87.55;100310.02;5050072;56;1141049;-87
2020/12/22 07:12:19;;;;;;;67.78;28.38;;;;;;;2.79;87.70;100306.48;5051998;57;1140444;-86
2020/12/22 07:17:24;;;;;;;29.43;14.40;;;;;;;2.82;88.08;100302.43;5046614;56;1138467;-90
2020/12/22 07:22:30;;;;;;;22.80;10.77;;;;;;;2.87;87.97;100297.45;5100434;57;1136512;-90
2020/12/22 07:27:35;;;;;;;19.23;11.20;;;;;;;2.91;88.04;100273.69;5105979;56;1140552;-90
2020/12/22 07:32:42;;;;;;;20.57;11.60;;;;;;;2.92;88.28;100257.56;5037407;57;1138494;-89
2020/12/22 07:37:47;;;;;;;13.30;5.97;;;;;;;2.92;88.13;100257.09;5020366;58;1136268;-90
2020/12/22 07:43:05;;;;;;;27.67;14.10;;;;;;;2.92;88.77;100268.85;4992814;57;1137188;-90
2020/12/22 07:48:11;;;;;;;19.33;11.10;;;;;;;2.97;88.33;100277.77;5109467;58;21659;-90
2020/12/22 07:53:18;;;;;;;22.23;9.40;;;;;;;3.02;88.52;100269.25;5074250;58;21442;-89
2020/12/22 07:58:26;;;;;;;19.40;9.30;;;;;;;3.06;88.63;100266.39;4960106;57;1132115;-88
2020/12/22 08:03:31;;;;;;;23.87;12.03;;;;;;;3.10;88.64;100264.47;4971240;58;1136235;-89
2020/12/22 08:08:37;;;;;;;18.17;10.17;;;;;;;3.14;88.57;100264.25;5041530;58;1138466;-90
2020/12/22 08:13:43;;;;;;;20.73;10.23;;;;;;;3.18;88.83;100255.34;4988498;57;1138479;-90
2020/12/22 08:18:49;;;;;;;20.60;10.50;;;;;;;3.23;88.81;100249.85;4991615;57;1140474;-88
2020/12/22 08:23:55;;;;;;;14.30;7.87;;;;;;;3.28;88.78;100249.63;5002232;57;1140313;-88
2020/12/22 08:29:03;;;;;;;18.57;9.00;;;;;;;3.29;88.72;100233.02;4985019;58;1136187;-88
2020/12/22 08:34:13;;;;;;;25.23;11.93;;;;;;;3.31;89.05;100215.49;5016801;57;1137203;-88
2020/12/22 08:39:25;;;;;;;26.62;12.43;;;;;;;3.33;88.98;100194.05;4854185;59;1138396;-89
2020/12/22 08:44:32;;;;;;;16.03;9.83;;;;;;;3.36;88.86;100187.35;5045134;58;21176;-90
2020/12/22 08:49:38;;;;;;;27.23;14.27;;;;;;;3.38;88.83;100175.86;5039297;58;21164;-89
2020/12/22 08:54:47;;;;;;;20.90;11.67;;;;;;;3.43;88.84;100170.40;4948286;57;1136162;-88
2020/12/22 08:59:53;;;;;;;40.00;16.13;;;;;;;3.44;89.18;100160.33;4977511;57;1140447;-88
2020/12/22 09:05:19;;;;;;;16.73;10.47;;;;;;;3.48;89.10;100149.63;4894132;58;1140471;-88
2020/12/22 09:10:20;;;;;;;16.70;10.27;;;;;;;3.53;89.13;100149.36;4794792;60;1140575;-89
2020/12/22 09:15:26;;;;;;;19.70;11.13;;;;;;;3.57;89.05;100135.20;5010986;58;21721;-90
2020/12/22 09:20:31;;;;;;;26.10;17.02;;;;;;;3.61;89.05;100128.87;4976969;58;1136313;-90
2020/12/22 09:25:37;;;;;;;17.83;11.10;;;;;;;3.65;89.33;100112.56;5012768;57;1140378;-89
2020/12/22 09:30:42;;;;;;;85.67;38.60;;;;;;;3.70;89.26;100120.97;4947913;59;21182;-88
2020/12/22 09:35:48;;;;;;;106.63;42.70;;;;;;;3.73;89.58;100107.27;4984018;58;1136208;-89
2020/12/22 09:40:53;;;;;;;19.50;9.20;;;;;;;3.78;89.33;100095.25;5010983;57;1142572;-88
2020/12/22 09:45:59;;;;;;;45.73;24.57;;;;;;;3.82;89.91;100086.28;5043991;57;1138418;-88
2020/12/22 09:51:04;;;;;;;15.70;8.70;;;;;;;3.88;89.78;100075.02;5061501;57;1140531;-89
2020/12/22 09:56:10;;;;;;;14.20;7.08;;;;;;;3.94;89.86;100057.30;5110349;57;1138425;-90
2020/12/22 10:01:23;;;;;;;10.10;6.33;;;;;;;4.02;90.19;100052.45;5055035;56;1138786;-90
2020/12/22 10:06:29;;;;;;;10.97;5.70;;;;;;;4.07;89.90;100043.41;5067270;57;1138317;-90
2020/12/22 10:11:37;;;;;;;7.10;4.00;;;;;;;4.12;90.00;100026.98;5043276;56;1138527;-89
2020/12/22 10:16:42;;;;;;;10.07;5.50;;;;;;;4.19;90.83;100016.51;5082441;56;1136292;-88
2020/12/22 10:21:48;;;;;;;6.57;4.20;;;;;;;4.28;90.56;100017.72;5095752;56;1138409;-89
2020/12/22 10:26:54;;;;;;;9.43;5.17;;;;;;;4.38;91.01;100007.56;5041975;57;1134347;-89
2020/12/22 10:31:59;;;;;;;19.07;9.18;;;;;;;4.50;90.96;99998.96;5092871;56;1136216;-90
2020/12/22 10:37:06;;;;;;;45.83;28.10;;;;;;;4.59;90.84;99997.92;5017692;56;1136201;-90
2020/12/22 10:42:11;;;;;;;63.50;36.58;;;;;;;4.62;90.48;99991.66;4985256;57;1138718;-89
2020/12/22 10:47:18;;;;;;;17.63;11.20;;;;;;;4.68;90.37;99989.14;4968930;56;1138555;-90
2020/12/22 10:52:24;;;;;;;13.00;6.80;;;;;;;4.70;90.42;99972.86;4995428;57;1138777;-89
2020/12/22 10:57:29;;;;;;;13.57;6.33;;;;;;;4.75;91.00;99953.75;4945833;58;1136187;-90
2020/12/22 11:02:36;;;;;;;9.90;6.10;;;;;;;4.79;90.90;99942.99;4856122;60;1136207;-89
2020/12/22 11:07:52;;;;;;;13.40;7.30;;;;;;;4.89;90.76;99934.91;4821030;58;1134255;-90
2020/12/22 11:12:57;;;;;;;6.93;4.27;;;;;;;4.97;91.09;99935.75;4949165;57;1136612;-89
2020/12/22 11:18:04;;;;;;;7.47;4.37;;;;;;;5.04;91.61;99934.91;4804161;58;1134449;-90
2020/12/22 11:23:09;;;;;;;5.77;4.03;;;;;;;5.13;91.65;99919.89;4956327;58;1134523;-90
2020/12/22 11:28:15;;;;;;;6.80;4.40;;;;;;;5.22;92.01;99927.98;4978406;57;1134614;-89
2020/12/22 11:33:21;;;;;;;7.57;4.83;;;;;;;5.33;91.76;99919.91;5004844;57;1134379;-92
2020/12/22 11:38:26;;;;;;;7.27;3.50;;;;;;;5.45;91.63;99913.85;5006397;56;1134640;-89
2020/12/22 11:43:32;;;;;;;4.77;3.10;;;;;;;5.60;92.44;99911.52;5030520;56;1134721;-90
2020/12/22 11:48:38;;;;;;;12.47;6.20;;;;;;;5.72;92.03;99918.56;5001115;57;1134784;-90
2020/12/22 11:53:44;;;;;;;11.30;5.37;;;;;;;5.80;91.87;99916.28;4974019;58;1136658;-89
2020/12/22 11:58:49;;;;;;;13.13;4.67;;;;;;;5.89;92.07;99896.47;5008679;57;1136801;-89
2020/12/22 12:03:55;;;;;;;26.90;7.70;;;;;;;6.03;92.51;99906.02;5000089;58;1136681;-89
2020/12/22 12:09:00;;;;;;;9.80;5.53;;;;;;;6.11;92.46;99903.22;5011496;57;1136588;-90
2020/12/22 12:14:06;;;;;;;8.93;5.40;;;;;;;6.19;92.31;99887.80;5020352;57;1134690;-90
2020/12/22 12:19:12;;;;;;;7.33;4.47;;;;;;;6.30;92.50;99898.86;4975225;58;1262199;-90
2020/12/22 12:24:17;;;;;;;8.73;5.05;;;;;;;6.35;92.29;99889.72;4998502;57;1135065;-91
2020/12/22 12:29:23;;;;;;;14.20;6.23;;;;;;;6.42;92.50;99883.55;4910993;58;1134608;-91
2020/12/22 12:34:28;;;;;;;7.33;4.70;;;;;;;6.47;92.11;99884.55;4902020;58;1136652;-90
2020/12/22 12:44:50;;;;;;;6.03;4.10;;;;;;;6.57;92.08;99886.40;5200670;55;46153;-89
2020/12/22 12:49:56;;;;;;;9.70;6.30;;;;;;;6.61;92.18;99885.24;4975484;57;1130314;-90
2020/12/22 12:55:02;;;;;;;13.37;5.20;;;;;;;6.67;92.57;99877.41;4989758;57;1134564;-88
2020/12/22 13:00:08;;;;;;;18.17;10.45;;;;;;;6.72;92.71;99868.73;5048059;56;1136990;-89
2020/12/22 13:05:16;;;;;;;14.03;7.40;;;;;;;6.80;92.43;99885.24;5072342;56;1138972;-89
2020/12/22 13:10:22;;;;;;;13.22;6.67;;;;;;;6.85;92.57;99880.03;5074280;55;1136770;-89
2020/12/22 13:15:28;;;;;;;10.30;5.77;;;;;;;6.93;93.00;99877.67;5065502;56;1136671;-88
2020/12/22 13:20:34;;;;;;;11.30;5.63;;;;;;;7.02;92.94;99880.96;5098384;55;1136614;-90
2020/12/22 13:25:39;;;;;;;9.27;5.53;;;;;;;7.14;93.21;99873.95;5093217;55;1136353;-88
2020/12/22 13:30:45;;;;;;;10.47;6.37;;;;;;;7.23;93.00;99874.58;5178583;55;1134254;-89
2020/12/22 13:35:50;;;;;;;16.50;9.40;;;;;;;7.30;92.86;99871.87;5176584;55;1136632;-88
2020/12/22 13:40:56;;;;;;;10.15;5.83;;;;;;;7.39;92.69;99876.91;5156553;55;1136698;-88
2020/12/22 13:46:01;;;;;;;12.67;6.67;;;;;;;7.49;93.08;99877.05;5175720;55;1136754;-89
2020/12/22 13:51:08;;;;;;;19.23;7.67;;;;;;;7.57;92.81;99872.91;5191668;55;1136258;-89
2020/12/22 13:56:19;;;;;;;8.95;6.62;;;;;;;7.64;92.83;99879.37;5163823;56;1136336;-89
2020/12/22 14:01:31;;;;;;;14.67;7.00;;;;;;;7.71;92.92;99866.12;5168644;55;1134368;-89
2020/12/22 14:06:36;;;;;;;8.93;5.43;;;;;;;7.82;93.10;99872.34;5170692;56;1136378;-88
2020/12/22 14:11:42;;;;;;;7.63;5.10;;;;;;;7.88;93.16;99879.31;5172890;55;1134059;-88
2020/12/22 14:16:51;;;;;;;9.77;5.60;;;;;;;7.95;92.89;99869.97;5164975;55;1134063;-88
2020/12/22 14:21:56;;;;;;;14.17;6.77;;;;;;;8.02;93.05;99876.94;5209786;55;1134062;-88
2020/12/22 14:27:02;;;;;;;6.97;5.53;;;;;;;8.09;92.94;99882.09;5186347;56;1136745;-87
2020/12/22 14:32:14;;;;;;;15.63;10.07;;;;;;;8.16;92.96;99881.13;5165577;56;1134112;-89
2020/12/22 14:37:20;;;;;;;8.07;7.27;;;;;;;8.21;92.73;99885.56;5188332;55;1138538;-89
2020/12/22 14:42:25;;;;;;;9.07;6.67;;;;;;;8.26;92.75;99888.19;5168143;55;1134779;-88
2020/12/22 14:47:31;;;;;;;7.17;6.33;;;;;;;8.32;92.71;99897.45;5219514;55;1134140;-88
2020/12/22 14:52:37;;;;;;;9.23;6.07;;;;;;;8.40;92.97;99902.97;5219368;55;1134111;-88
2020/12/22 14:57:43;;;;;;;9.63;5.37;;;;;;;8.48;92.83;99907.15;5236244;55;1134155;-88
2020/12/22 15:02:48;;;;;;;7.80;7.00;;;;;;;8.57;93.06;99905.09;5214627;55;1134082;-87
2020/12/22 15:07:54;;;;;;;11.43;6.70;;;;;;;8.66;92.66;99903.55;5213202;55;1134116;-87
2020/12/22 15:13:00;;;;;;;22.47;13.93;;;;;;;8.71;92.32;99912.75;5205400;55;1136142;-88
2020/12/22 15:18:05;;;;;;;40.73;18.30;;;;;;;8.75;92.35;99914.19;5210778;55;1138688;-87
2020/12/22 15:23:11;;;;;;;36.05;18.42;;;;;;;8.80;92.50;99918.63;5200427;55;1138390;-87
2020/12/22 15:28:18;;;;;;;31.00;19.73;;;;;;;8.85;92.62;99920.90;5230393;55;1138316;-87
2020/12/22 15:33:24;;;;;;;7.57;5.80;;;;;;;8.87;92.37;99924.23;5204201;55;1138437;-87
2020/12/22 15:38:29;;;;;;;8.20;6.72;;;;;;;8.91;92.86;99929.62;5239304;55;1134682;-87
2020/12/22 15:43:36;;;;;;;9.10;6.67;;;;;;;8.95;92.55;99932.37;5207171;55;1134053;-87
2020/12/22 15:48:42;;;;;;;26.37;15.67;;;;;;;8.98;92.88;99924.23;5171270;55;1134174;-87
2020/12/22 15:53:50;;;;;;;14.93;10.57;;;;;;;9.05;92.67;99935.94;5170917;55;1138358;-88
2020/12/22 15:58:56;;;;;;;86.57;50.50;;;;;;;9.12;92.58;99933.66;5160397;55;1138379;-87
2020/12/22 16:04:01;;;;;;;159.67;119.63;;;;;;;9.18;92.44;99949.81;5168840;56;1138278;-88
2020/12/22 16:09:13;;;;;;;43.83;30.57;;;;;;;9.17;92.10;99943.34;5165672;56;1142898;-89
2020/12/22 16:14:22;;;;;;;30.80;14.20;;;;;;;9.27;92.16;99954.01;5168237;55;1138225;-88
2020/12/22 16:19:29;;;;;;;10.43;6.63;;;;;;;9.31;92.34;99953.64;5170355;55;1138381;-89
2020/12/22 16:24:35;;;;;;;22.83;9.80;;;;;;;9.37;92.17;99952.28;5170372;55;1136291;-89
2020/12/22 16:29:40;;;;;;;31.97;11.70;;;;;;;9.41;92.22;99944.00;5170886;55;1136298;-88
2020/12/22 16:34:47;;;;;;;77.37;32.33;;;;;;;9.46;92.15;99940.99;5173020;55;1138684;-88
2020/12/22 16:39:53;;;;;;;48.57;18.27;;;;;;;9.49;92.41;99951.27;5193862;55;1138267;-88
2020/12/22 16:44:59;;;;;;;149.57;89.53;;;;;;;9.53;92.18;99954.87;5173234;55;1138568;-87
2020/12/22 16:50:05;;;;;;;82.67;43.13;;;;;;;9.53;92.08;99946.95;5225076;55;1140363;-88
2020/12/22 16:55:11;;;;;;;63.77;26.53;;;;;;;9.57;92.13;99952.82;5220103;55;1138190;-88
2020/12/22 17:00:17;;;;;;;62.73;25.47;;;;;;;9.61;92.15;99942.38;5219044;55;1139084;-88
2020/12/22 17:05:22;;;;;;;39.37;18.50;;;;;;;9.64;92.23;99951.33;5210171;55;1141403;-88
2020/12/22 17:10:28;;;;;;;27.17;14.80;;;;;;;9.69;92.02;99953.60;5232890;55;1138610;-88
2020/12/22 17:15:33;;;;;;;30.53;16.50;;;;;;;9.72;91.96;99954.67;5208966;55;1138389;-88
2020/12/22 17:20:39;;;;;;;15.63;6.83;;;;;;;9.76;92.10;99953.46;5206396;55;1138892;-88
2020/12/22 17:25:46;;;;;;;9.80;5.37;;;;;;;9.81;92.13;99942.02;5211749;55;1136490;-89
2020/12/22 17:30:52;;;;;;;19.50;9.97;;;;;;;9.82;91.91;99944.53;5206006;55;1134654;-88
2020/12/22 17:35:58;;;;;;;15.77;7.03;;;;;;;9.84;91.69;99949.69;5214711;55;1136283;-89
2020/12/22 17:41:04;;;;;;;22.73;9.10;;;;;;;9.85;91.81;99950.88;5232052;55;1136381;-89
2020/12/22 17:46:16;;;;;;;11.57;6.33;;;;;;;9.90;91.76;99954.95;5219445;55;1136356;-89
2020/12/22 17:51:24;;;;;;;58.70;37.53;;;;;;;9.91;91.65;99960.11;5222461;55;1136417;-88
2020/12/22 17:56:29;;;;;;;46.87;13.80;;;;;;;9.93;92.12;99968.72;5217922;55;1138567;-88
2020/12/22 18:01:34;;;;;;;37.33;12.00;;;;;;;9.96;92.40;99971.59;5225285;55;1138296;-88
2020/12/22 18:06:40;;;;;;;21.73;6.60;;;;;;;10.01;92.60;99979.50;5225330;55;1138240;-88
2020/12/22 18:11:45;;;;;;;21.97;6.77;;;;;;;10.11;92.94;99988.31;5216071;55;1138471;-88
2020/12/22 18:16:54;;;;;;;50.77;14.57;;;;;;;10.21;92.83;99986.63;5079460;57;1138408;-88
2020/12/22 18:21:59;;;;;;;27.63;9.33;;;;;;;10.28;92.42;100000.14;5216424;55;1140775;-88
2020/12/22 18:27:05;;;;;;;32.93;9.60;;;;;;;10.32;92.61;99996.77;5233745;55;1140587;-88
2020/12/22 18:32:10;;;;;;;33.43;8.67;;;;;;;10.37;92.25;100021.01;5098802;57;1138271;-88
2020/12/22 18:37:16;;;;;;;4.00;2.50;;;;;;;10.42;92.37;100023.59;5227949;55;1140839;-88
2020/12/22 18:42:22;;;;;;;5.03;4.27;;;;;;;10.39;92.21;100029.14;5200249;55;1139302;-88
2020/12/22 18:47:33;;;;;;;11.73;3.70;;;;;;;10.48;91.97;100049.53;5229452;55;1138491;-88
2020/12/22 18:52:39;;;;;;;9.63;4.27;;;;;;;10.52;91.36;100047.47;5228679;55;1140716;-88
2020/12/22 18:57:45;;;;;;;7.70;2.73;;;;;;;10.55;90.85;100054.63;5216914;55;1138613;-89
2020/12/22 19:02:51;;;;;;;7.80;2.77;;;;;;;10.52;90.69;100068.14;5215310;55;1138520;-89
2020/12/22 19:07:56;;;;;;;2.07;1.50;;;;;;;10.50;90.52;100078.48;5204006;55;1138710;-88
2020/12/22 19:13:02;;;;;;;2.97;1.67;;;;;;;10.46;90.00;100085.83;5213503;55;1138254;-88
2020/12/22 19:18:07;;;;;;;1.50;1.03;;;;;;;10.41;89.75;100088.01;5203898;55;1138489;-89
2020/12/22 19:23:13;;;;;;;1.90;1.70;;;;;;;10.36;89.28;100097.31;5219097;55;1138604;-89
2020/12/22 19:28:18;;;;;;;5.50;1.63;;;;;;;10.30;89.43;100109.22;5205394;55;1138761;-88
2020/12/22 19:33:24;;;;;;;2.33;1.95;;;;;;;10.25;89.48;100115.84;5219256;55;1139302;-88
2020/12/22 19:38:29;;;;;;;5.47;4.17;;;;;;;10.20;89.41;100125.01;5222699;55;1138488;-89
2020/12/22 19:43:35;;;;;;;4.05;2.47;;;;;;;10.16;89.34;100139.40;5216950;55;1138272;-89
2020/12/22 19:48:41;;;;;;;8.47;5.67;;;;;;;10.13;89.41;100145.41;5210628;55;1138388;-90
2020/12/22 19:53:46;;;;;;;30.57;20.03;;;;;;;10.11;89.35;100163.19;5215991;55;1138316;-90
2020/12/22 19:58:52;;;;;;;14.20;6.60;;;;;;;10.06;89.23;100187.37;5201068;55;1142868;-89
2020/12/22 20:03:58;;;;;;;5.43;3.67;;;;;;;9.95;87.21;100195.77;5222793;55;1140793;-88
2020/12/22 20:09:03;;;;;;;9.80;5.60;;;;;;;9.75;87.12;100210.59;5208660;55;1136629;-88
2020/12/22 20:14:09;;;;;;;11.20;5.83;;;;;;;9.57;86.66;100233.98;5204970;55;1136648;-88
2020/12/22 20:19:15;;;;;;;19.50;10.17;;;;;;;9.32;84.85;100241.63;5206394;55;1138935;-88
2020/12/22 20:24:21;;;;;;;22.53;9.47;;;;;;;9.17;85.83;100262.58;5154091;55;1140868;-88
2020/12/22 20:29:26;;;;;;;15.38;8.15;;;;;;;9.03;85.84;100272.86;5134770;55;1138790;-88
2020/12/22 20:34:32;;;;;;;8.73;5.60;;;;;;;8.90;85.44;100280.48;5156804;55;1138802;-88
2020/12/22 20:39:38;;;;;;;12.93;8.93;;;;;;;8.79;85.65;100278.18;5177637;55;1136728;-88
2020/12/22 20:44:43;;;;;;;5.13;3.10;;;;;;;8.71;85.43;100296.82;5016330;56;1138903;-88
2020/12/22 20:49:49;;;;;;;11.70;6.33;;;;;;;8.61;84.84;100304.58;4942155;57;1136770;-88
2020/12/22 20:54:54;;;;;;;8.10;4.27;;;;;;;8.56;85.27;100305.37;4934158;57;1138833;-88
2020/12/22 21:00:00;;;;;;;8.63;4.50;;;;;;;8.51;85.52;100308.00;5048696;56;1136968;-88
2020/12/22 21:05:05;;;;;;;6.67;5.17;;;;;;;8.47;85.58;100317.91;5017019;56;1136843;-88
2020/12/22 21:10:12;;;;;;;9.83;5.00;;;;;;;8.43;84.53;100321.71;5060270;55;1136740;-89
2020/12/22 21:15:19;;;;;;;3.54;2.10;;;;;;;8.40;85.09;100339.09;5065858;56;1136648;-88
2020/12/22 21:20:25;;;;;;;3.85;2.90;;;;;;;8.34;84.80;100334.23;5061019;56;1136728;-88
2020/12/22 21:25:32;;;;;;;4.55;4.05;;;;;;;8.31;85.04;100337.05;5067795;55;1136554;-88
2020/12/22 21:30:37;;;;;;;6.57;3.27;;;;;;;8.28;84.94;100340.74;5091745;56;1136778;-89
2020/12/22 21:35:46;;;;;;;5.40;3.37;;;;;;;8.26;85.30;100342.64;5087559;56;1136689;-89
2020/12/22 21:40:51;;;;;;;7.43;4.23;;;;;;;8.23;85.19;100344.20;4968089;57;1136712;-88
2020/12/22 21:45:57;;;;;;;6.03;2.50;;;;;;;8.21;85.16;100343.46;4974934;57;1137038;-88
2020/12/22 21:51:03;;;;;;;7.10;4.50;;;;;;;8.20;84.97;100344.41;5030535;57;1136639;-88
2020/12/22 21:56:12;;;;;;;5.93;2.67;;;;;;;8.17;84.92;100363.06;5078170;55;1136667;-88
2020/12/22 22:01:17;;;;;;;5.63;1.90;;;;;;;8.12;84.78;100371.27;5112822;56;1136559;-87
2020/12/22 22:06:23;;;;;;;3.20;2.20;;;;;;;8.16;84.92;100386.88;5117811;56;1144494;-88
2020/12/22 22:11:28;;;;;;;8.30;2.33;;;;;;;8.12;84.83;100398.94;5111616;56;1144401;-89
2020/12/22 22:16:34;;;;;;;3.07;2.77;;;;;;;8.08;84.91;100413.29;5120400;55;1136418;-88
2020/12/22 22:21:40;;;;;;;3.70;2.30;;;;;;;8.06;84.54;100405.96;5119040;56;1136634;-88
2020/12/22 22:26:45;;;;;;;12.40;7.23;;;;;;;8.03;84.58;100411.44;5122094;56;1136698;-88
2020/12/22 22:31:51;;;;;;;5.27;3.67;;;;;;;8.02;84.79;100418.97;5110946;56;1138828;-88
2020/12/22 22:36:57;;;;;;;4.37;2.00;;;;;;;8.02;84.76;100423.39;5126052;56;1136811;-88
2020/12/22 22:42:04;;;;;;;2.90;2.13;;;;;;;7.98;84.40;100426.70;5128568;56;1136402;-88
2020/12/22 22:47:10;;;;;;;3.00;2.10;;;;;;;7.96;84.11;100418.53;5124171;56;1136695;-89
2020/12/22 22:52:16;;;;;;;5.60;2.33;;;;;;;7.92;84.12;100419.70;5138378;56;1136580;-88
2020/12/22 22:57:22;;;;;;;4.17;1.90;;;;;;;7.89;84.02;100427.34;5121104;56;1136693;-88
2020/12/22 23:02:28;;;;;;;3.27;2.17;;;;;;;7.85;84.00;100435.53;5116763;56;1136813;-88
2020/12/22 23:07:34;;;;;;;5.35;2.45;;;;;;;7.80;83.94;100437.16;5133350;56;1136910;-89
2020/12/22 23:12:39;;;;;;;13.07;4.40;;;;;;;7.76;83.90;100426.02;5104306;55;1136664;-88
2020/12/22 23:17:45;;;;;;;5.30;2.47;;;;;;;7.74;83.99;100454.23;5109159;55;1138605;-88